createdAt,value
2023-03-06T00:03:50.738Z,99037.44
2023-03-06T00:07:52.670Z,99055.53
2023-03-06T00:11:54.551Z,99051.31
2023-03-06T00:15:59.823Z,99052.56
2023-03-06T00:20:01.686Z,99057.28
2023-03-06T00:24:04.106Z,99047.34
2023-03-06T00:28:06.578Z,99037.19
2023-03-06T00:32:08.615Z,99042.22
2023-03-06T00:36:10.882Z,99035.63
2023-03-06T00:40:17.048Z,99027.94
2023-03-06T00:44:19.056Z,99023.75
2023-03-06T00:48:20.962Z,99033.53
2023-03-06T00:52:23.411Z,99002.06
2023-03-06T00:56:25.777Z,99015.59
2023-03-06T01:00:27.553Z,99007.06
2023-03-06T01:04:29.396Z,99001.13
2023-03-06T01:08:31.243Z,98985.25
2023-03-06T01:12:33.050Z,98991.56
2023-03-06T01:16:34.859Z,98983.00
2023-03-06T01:20:36.859Z,98986.69
2023-03-06T01:24:39.138Z,98974.31
2023-03-06T01:28:41.216Z,98972.25
2023-03-06T01:32:43.130Z,98971.13
2023-03-06T01:36:47.513Z,98959.16
2023-03-06T01:40:49.437Z,98976.53
2023-03-06T01:45:11.324Z,98964.31
2023-03-06T01:49:36.860Z,98969.69
2023-03-06T01:53:38.866Z,98966.28
2023-03-06T01:57:46.732Z,98958.22
2023-03-06T02:01:48.564Z,98940.50
2023-03-06T02:05:50.498Z,98951.22
2023-03-06T02:09:52.478Z,98942.94
2023-03-06T02:13:54.364Z,98943.50
2023-03-06T02:17:56.164Z,98932.94
2023-03-06T02:21:57.941Z,98940.13
2023-03-06T02:25:59.938Z,98938.91
2023-03-06T02:30:07.528Z,98932.91
2023-03-06T02:34:29.403Z,98931.03
2023-03-06T02:38:43.435Z,98924.22
2023-03-06T02:42:51.087Z,98929.59
2023-03-06T02:46:55.995Z,98921.28
2023-03-06T02:50:57.852Z,98918.13
2023-03-06T02:54:59.741Z,98929.66
2023-03-06T02:59:01.535Z,98908.38
2023-03-06T03:03:11.181Z,98901.06
2023-03-06T03:07:19.098Z,98899.44
2023-03-06T03:11:34.080Z,98904.53
2023-03-06T03:15:36.103Z,98901.13
2023-03-06T03:19:44.115Z,98896.44
2023-03-06T03:23:45.803Z,98891.69
2023-03-06T03:27:47.715Z,98882.53
2023-03-06T03:31:49.621Z,98881.59
2023-03-06T03:35:58.183Z,98888.19
2023-03-06T03:40:00.210Z,98883.28
2023-03-06T03:44:01.951Z,98877.13
2023-03-06T03:48:03.958Z,98875.34
2023-03-06T03:52:07.058Z,98865.16
2023-03-06T03:56:09.183Z,98864.00
2023-03-06T04:00:16.153Z,98856.81
2023-03-06T04:04:18.052Z,98862.75
2023-03-06T04:08:21.125Z,98852.19
2023-03-06T04:12:23.136Z,98847.41
2023-03-06T04:16:25.234Z,98838.88
2023-03-06T04:20:28.184Z,98834.16
2023-03-06T04:24:30.016Z,98838.63
2023-03-06T04:28:31.802Z,98840.22
2023-03-06T04:32:33.683Z,98822.22
2023-03-06T04:36:35.610Z,98828.25
2023-03-06T04:40:37.779Z,98823.78
2023-03-06T04:44:39.654Z,98819.88
2023-03-06T04:48:41.601Z,98825.50
2023-03-06T04:52:43.491Z,98813.34
2023-03-06T04:56:45.296Z,98821.28
2023-03-06T05:00:47.213Z,98816.72
2023-03-06T05:04:49.045Z,98808.19
2023-03-06T05:08:50.985Z,98808.78
2023-03-06T05:12:52.910Z,98804.47
2023-03-06T05:16:54.757Z,98817.13
2023-03-06T05:20:59.542Z,98808.13
2023-03-06T05:25:01.329Z,98813.72
2023-03-06T05:29:03.217Z,98804.00
2023-03-06T05:33:05.316Z,98801.22
2023-03-06T05:37:07.198Z,98790.91
2023-03-06T05:41:13.071Z,98796.28
2023-03-06T05:45:14.968Z,98789.38
2023-03-06T05:49:17.296Z,98796.28
2023-03-06T05:53:19.143Z,98791.03
2023-03-06T05:57:22.298Z,98790.78
2023-03-06T06:01:25.484Z,98785.94
2023-03-06T06:05:27.402Z,98788.28
2023-03-06T06:09:29.318Z,98776.50
2023-03-06T06:13:31.134Z,98777.66
2023-03-06T06:17:32.958Z,98782.81
2023-03-06T06:21:34.746Z,98780.41
2023-03-06T06:25:37.167Z,98786.75
2023-03-06T06:29:39.062Z,98787.06
2023-03-06T06:33:41.380Z,98778.59
2023-03-06T06:37:43.206Z,98786.94
2023-03-06T06:42:02.333Z,98779.41
2023-03-06T06:46:38.733Z,98779.75
2023-03-06T06:50:29.400Z,98773.16
2023-03-06T06:54:32.120Z,98779.13
2023-03-06T06:58:33.909Z,98775.44
2023-03-06T07:02:35.684Z,98781.81
2023-03-06T07:06:37.601Z,98768.81
2023-03-06T07:10:39.463Z,98775.66
2023-03-06T07:14:42.459Z,98765.09
2023-03-06T07:18:45.372Z,98768.41
2023-03-06T07:22:51.214Z,98780.56
2023-03-06T07:26:53.745Z,98756.88
2023-03-06T07:30:55.696Z,98755.81
2023-03-06T07:35:13.731Z,98762.56
2023-03-06T07:39:19.269Z,98755.22
2023-03-06T07:43:21.093Z,98754.69
2023-03-06T07:47:22.872Z,98760.47
2023-03-06T07:51:24.812Z,98765.31
2023-03-06T07:55:26.635Z,98773.88
2023-03-06T07:59:28.442Z,98770.47
2023-03-06T08:03:30.227Z,98753.00
2023-03-06T08:07:31.990Z,98760.72
2023-03-06T08:11:33.738Z,98752.91
2023-03-06T08:15:35.625Z,98755.16
2023-03-06T08:19:37.402Z,98746.22
2023-03-06T08:23:39.343Z,98749.22
2023-03-06T08:27:42.491Z,98754.69
2023-03-06T08:31:45.568Z,98756.50
2023-03-06T08:35:47.579Z,98745.22
2023-03-06T08:39:49.381Z,98766.72
2023-03-06T08:43:51.395Z,98764.34
2023-03-06T08:47:53.204Z,98759.66
2023-03-06T08:51:55.016Z,98765.84
2023-03-06T08:55:56.887Z,98763.34
2023-03-06T08:59:58.748Z,98755.25
2023-03-06T09:04:03.996Z,98758.72
2023-03-06T09:08:05.942Z,98763.44
2023-03-06T09:12:07.767Z,98760.13
2023-03-06T09:16:10.411Z,98760.63
2023-03-06T09:20:12.674Z,98757.47
2023-03-06T09:24:14.457Z,98752.41
2023-03-06T09:28:18.007Z,98747.59
2023-03-06T09:32:22.816Z,98742.56
2023-03-06T09:36:24.747Z,98738.63
2023-03-06T09:40:42.792Z,98746.44
2023-03-06T09:44:48.066Z,98726.69
2023-03-06T09:49:02.824Z,98740.44
2023-03-06T09:53:18.685Z,98738.34
2023-03-06T09:57:27.394Z,98736.88
2023-03-06T10:01:34.890Z,98719.31
2023-03-06T10:05:41.487Z,98729.47
2023-03-06T10:10:01.984Z,98724.13
2023-03-06T10:14:40.041Z,98712.19
2023-03-06T10:18:41.822Z,98723.38
2023-03-06T10:23:01.328Z,98725.03
2023-03-06T10:27:24.042Z,98725.63
2023-03-06T10:31:27.303Z,98726.09
2023-03-06T10:35:33.452Z,98720.53
2023-03-06T10:39:38.523Z,98720.16
2023-03-06T10:43:45.592Z,98727.38
2023-03-06T10:47:47.466Z,98716.47
2023-03-06T10:52:20.836Z,98717.38
2023-03-06T10:56:37.953Z,98704.03
2023-03-06T11:00:39.771Z,98705.16
2023-03-06T11:04:41.792Z,98698.56
2023-03-06T11:08:44.212Z,98713.97
2023-03-06T11:13:08.996Z,98704.97
2023-03-06T11:17:27.942Z,98709.34
2023-03-06T11:21:34.859Z,98713.25
2023-03-06T11:25:52.199Z,98708.16
2023-03-06T11:29:54.842Z,98729.94
2023-03-06T11:34:09.336Z,98718.28
2023-03-06T11:38:36.175Z,98700.81
2023-03-06T11:43:10.749Z,98717.25
2023-03-06T11:47:24.520Z,98722.91
2023-03-06T11:51:30.783Z,98699.69
2023-03-06T11:56:09.993Z,98698.91
2023-03-06T12:00:26.111Z,98674.22
2023-03-06T12:04:59.432Z,98688.34
2023-03-06T12:09:13.572Z,98673.06
2023-03-06T12:13:47.281Z,98665.94
2023-03-06T12:18:29.435Z,98658.63
2023-03-06T12:23:02.442Z,98658.31
2023-03-06T12:27:36.777Z,98654.41
2023-03-06T12:32:14.817Z,98648.41
2023-03-06T12:36:59.748Z,98654.56
2023-03-06T12:41:43.127Z,98651.00
2023-03-06T12:45:45.866Z,98653.78
2023-03-06T12:50:33.329Z,98648.72
2023-03-06T12:54:40.475Z,98656.34
2023-03-06T12:58:53.572Z,98658.63
2023-03-06T13:03:21.974Z,98670.03
2023-03-06T13:08:11.058Z,98669.78
2023-03-06T13:12:39.936Z,98667.91
2023-03-06T13:16:41.742Z,98669.66
2023-03-06T13:20:45.053Z,98674.56
2023-03-06T13:24:46.805Z,98673.72
2023-03-06T13:28:51.077Z,98668.63
2023-03-06T13:32:56.266Z,98666.66
2023-03-06T13:37:16.861Z,98669.03
2023-03-06T13:41:27.403Z,98657.66
2023-03-06T13:45:44.127Z,98666.88
2023-03-06T13:49:46.893Z,98655.94
2023-03-06T13:54:01.761Z,98649.22
2023-03-06T13:58:48.541Z,98634.78
2023-03-06T14:03:25.185Z,98641.88
2023-03-06T14:07:31.361Z,98644.31
2023-03-06T14:11:33.418Z,98631.25
2023-03-06T14:15:52.658Z,98634.38
2023-03-06T14:19:55.092Z,98628.38
2023-03-06T14:24:02.258Z,98625.34
2023-03-06T14:28:13.825Z,98634.97
2023-03-06T14:32:19.963Z,98624.59
2023-03-06T14:36:24.521Z,98618.97
2023-03-06T14:40:36.258Z,98626.31
2023-03-06T14:44:40.244Z,98621.72
2023-03-06T14:48:47.573Z,98609.31
2023-03-06T14:53:28.630Z,98613.75
2023-03-06T14:57:30.534Z,98612.72
2023-03-06T15:01:46.428Z,98610.09
2023-03-06T15:05:59.151Z,98611.63
2023-03-06T15:10:01.136Z,98622.19
2023-03-06T15:14:04.454Z,98621.75
2023-03-06T15:18:28.938Z,98619.72
2023-03-06T15:22:51.086Z,98623.63
2023-03-06T15:26:53.463Z,98600.00
2023-03-06T15:31:19.188Z,98606.00
2023-03-06T15:35:30.654Z,98611.41
2023-03-06T15:39:34.617Z,98608.00
2023-03-06T15:43:39.815Z,98601.94
2023-03-06T15:47:43.393Z,98611.25
2023-03-06T15:51:45.294Z,98613.53
2023-03-06T15:55:47.275Z,98624.19
2023-03-06T15:59:49.158Z,98629.59
2023-03-06T16:03:50.991Z,98665.31
2023-03-06T16:07:53.224Z,98677.84
2023-03-06T16:11:55.121Z,98685.13
2023-03-06T16:15:57.052Z,98690.00
2023-03-06T16:19:58.918Z,98681.91
2023-03-06T16:24:05.868Z,98683.47
2023-03-06T16:28:14.270Z,98682.34
2023-03-06T16:32:16.352Z,98678.69
2023-03-06T16:36:23.694Z,98678.28
2023-03-06T16:40:41.016Z,98682.78
2023-03-06T16:44:45.600Z,98672.00
2023-03-06T16:48:47.610Z,98667.56
2023-03-06T16:52:51.113Z,98657.75
2023-03-06T16:56:53.134Z,98654.75
2023-03-06T17:00:57.645Z,98663.75
2023-03-06T17:04:59.434Z,98648.91
2023-03-06T17:09:04.080Z,98660.47
2023-03-06T17:13:09.596Z,98654.63
2023-03-06T17:17:14.866Z,98660.47
2023-03-06T17:21:26.692Z,98670.41
2023-03-06T17:25:38.521Z,98670.69
2023-03-06T17:29:40.541Z,98670.28
2023-03-06T17:34:00.583Z,98670.97
2023-03-06T17:38:04.704Z,98674.94
2023-03-06T17:42:07.297Z,98690.31
2023-03-06T17:46:13.595Z,98673.00
2023-03-06T17:50:18.476Z,98691.53
2023-03-06T17:54:26.330Z,98705.41
2023-03-06T17:58:32.942Z,98703.09
2023-03-06T18:02:35.331Z,98694.69
2023-03-06T18:06:37.308Z,98692.06
2023-03-06T18:10:40.602Z,98696.50
2023-03-06T18:14:42.502Z,98701.84
2023-03-06T18:18:47.509Z,98691.47
2023-03-06T18:22:51.649Z,98701.28
2023-03-06T18:26:53.502Z,98704.56
2023-03-06T18:30:58.213Z,98707.84
2023-03-06T18:35:02.814Z,98701.44
2023-03-06T18:39:08.663Z,98713.59
2023-03-06T18:43:10.562Z,98715.91
2023-03-06T18:47:15.069Z,98709.09
2023-03-06T18:51:17.249Z,98703.59
2023-03-06T18:55:19.131Z,98716.97
2023-03-06T18:59:22.022Z,98709.34
2023-03-06T19:03:23.933Z,98706.25
2023-03-06T19:07:25.957Z,98716.31
2023-03-06T19:11:28.134Z,98710.56
2023-03-06T19:15:29.943Z,98715.50
2023-03-06T19:19:32.593Z,98718.06
2023-03-06T19:23:34.402Z,98711.16
2023-03-06T19:27:38.157Z,98702.69
2023-03-06T19:31:40.073Z,98713.56
2023-03-06T19:35:42.252Z,98707.44
2023-03-06T19:39:47.275Z,98717.50
2023-03-06T19:43:53.045Z,98706.63
2023-03-06T19:48:00.690Z,98698.56
2023-03-06T19:52:08.778Z,98707.56
2023-03-06T19:56:15.465Z,98700.09
2023-03-06T20:00:21.665Z,98711.25
2023-03-06T20:04:24.527Z,98705.16
2023-03-06T20:08:26.674Z,98707.19
2023-03-06T20:12:33.259Z,98701.06
2023-03-06T20:16:35.404Z,98702.13
2023-03-06T20:20:43.756Z,98700.34
2023-03-06T20:24:46.004Z,98699.97
2023-03-06T20:28:47.998Z,98699.16
2023-03-06T20:32:50.634Z,98690.16
2023-03-06T20:36:52.603Z,98695.84
2023-03-06T20:40:57.595Z,98687.56
2023-03-06T20:45:01.677Z,98694.91
2023-03-06T20:49:05.998Z,98699.66
2023-03-06T20:53:08.027Z,98710.50
2023-03-06T20:57:09.903Z,98679.78
2023-03-06T21:01:23.340Z,98682.94
2023-03-06T21:05:25.169Z,98689.75
2023-03-06T21:09:27.038Z,98679.00
2023-03-06T21:13:28.957Z,98662.09
2023-03-06T21:17:30.747Z,98656.94
2023-03-06T21:21:36.088Z,98660.75
2023-03-06T21:25:40.891Z,98650.00
2023-03-06T21:29:44.360Z,98653.69
2023-03-06T21:33:46.624Z,98647.28
2023-03-06T21:37:48.544Z,98651.50
2023-03-06T21:41:54.341Z,98652.06
2023-03-06T21:46:01.065Z,98642.50
2023-03-06T21:50:03.303Z,98639.91
2023-03-06T21:54:06.540Z,98632.00
2023-03-06T21:58:08.572Z,98634.00
2023-03-06T22:02:12.894Z,98634.47
2023-03-06T22:06:26.314Z,98639.13
2023-03-06T22:10:28.216Z,98646.19
2023-03-06T22:14:30.257Z,98631.47
2023-03-06T22:18:32.708Z,98637.16
2023-03-06T22:22:34.513Z,98633.59
2023-03-06T22:26:36.283Z,98633.53
2023-03-06T22:30:37.994Z,98624.44
2023-03-06T22:34:39.862Z,98622.41
2023-03-06T22:38:43.713Z,98624.44
2023-03-06T22:42:45.490Z,98608.50
2023-03-06T22:46:47.440Z,98599.66
2023-03-06T22:50:49.339Z,98606.19
2023-03-06T22:54:51.135Z,98627.00
2023-03-06T22:58:53.041Z,98613.41
2023-03-06T23:02:54.980Z,98624.06
2023-03-06T23:06:56.739Z,98616.41
2023-03-06T23:10:58.520Z,98614.63
2023-03-06T23:15:00.527Z,98598.94
2023-03-06T23:19:04.511Z,98602.09
2023-03-06T23:23:06.247Z,98589.38
2023-03-06T23:27:07.997Z,98595.53
2023-03-06T23:31:19.263Z,98595.28
2023-03-06T23:35:21.196Z,98590.78
2023-03-06T23:39:23.010Z,98582.78
2023-03-06T23:43:24.774Z,98566.88
2023-03-06T23:47:26.794Z,98561.84
2023-03-06T23:51:28.558Z,98563.88
2023-03-06T23:55:30.319Z,98570.41
2023-03-06T23:59:32.104Z,98553.81
